Weitchpec, California
Current Conditions -  °F | °C
As of 6:53 AM on Saturday 20 Dec 2014 (Local Time) from KACV Reporting Station
Light Rain Light Rain  
Wind Chill: 51°   Ceiling: 4700
Heat Index: 51°   Visibility: 10mi
Dew Point: 49°   Wind: 10mph
Humidity: 92%   Direction: 130°SE
Pressure: 30.03"   Gusts: NA
Location:  41.4038°N, 123.781°W
Report Text: KACV 201453Z AUTO 13009KT 10SM -RA OVC047 11/09 A3003 RMK AO2 SLP175 P0006 60025 T01060094 58006
Loading
Personal Weather Stations






























Interactive Weather Map New forecast layout! Learn more

10-Day Weather Forecast

Advertisements
Track Severe Weather on mobile